createdAt,value
2023-04-13T00:00:55.933Z,98907.57
2023-04-13T00:03:24.678Z,98903.53
2023-04-13T00:05:53.779Z,98900.21
2023-04-13T00:08:23.319Z,98894.08
2023-04-13T00:10:53.626Z,98885.35
2023-04-13T00:13:21.985Z,98886.15
2023-04-13T00:15:50.384Z,98888.77
2023-04-13T00:18:20.864Z,98890.92
2023-04-13T00:20:49.914Z,98895.66
2023-04-13T00:23:18.353Z,98893.83
2023-04-13T00:25:46.687Z,98898.34
2023-04-13T00:28:16.748Z,98898.61
2023-04-13T00:30:45.119Z,98897.52
2023-04-13T00:33:13.725Z,98892.64
2023-04-13T00:35:42.143Z,98890.91
2023-04-13T00:38:13.057Z,98888.52
2023-04-13T00:40:41.943Z,98889.96
2023-04-13T00:43:10.329Z,98888.59
2023-04-13T00:45:38.995Z,98893.89
2023-04-13T00:48:12.373Z,98892.11
2023-04-13T00:50:42.863Z,98897.20
2023-04-13T00:53:13.773Z,98899.27
2023-04-13T00:55:43.971Z,98894.95
2023-04-13T00:58:13.449Z,98899.78
2023-04-13T01:00:43.765Z,98902.23
2023-04-13T01:03:13.322Z,98897.92
2023-04-13T01:06:17.991Z,98899.40
2023-04-13T01:09:10.594Z,98900.38
2023-04-13T01:11:58.378Z,98902.42
2023-04-13T01:14:57.262Z,98904.40
2023-04-13T01:17:31.573Z,98906.30
2023-04-13T01:29:46.801Z,98899.84
2023-04-13T01:32:16.421Z,98899.80
2023-04-13T01:34:45.849Z,98897.01
2023-04-13T01:37:15.277Z,98900.28
2023-04-13T01:39:43.602Z,98906.30
2023-04-13T01:42:12.102Z,98905.33
2023-04-13T01:44:40.468Z,98898.01
2023-04-13T01:47:18.901Z,98899.14
2023-04-13T01:49:57.818Z,98900.11
2023-04-13T01:52:28.031Z,98892.14
2023-04-13T01:54:56.814Z,98884.66
2023-04-13T01:57:28.740Z,98884.91
2023-04-13T01:59:57.600Z,98888.73
2023-04-13T02:02:26.817Z,98885.24
2023-04-13T02:04:59.891Z,98880.10
2023-04-13T02:07:29.212Z,98880.34
2023-04-13T02:09:57.523Z,98881.36
2023-04-13T02:12:25.818Z,98879.11
2023-04-13T02:14:54.138Z,98882.87
2023-04-13T02:17:25.668Z,98885.85
2023-04-13T02:19:54.042Z,98888.27
2023-04-13T02:22:24.058Z,98890.52
2023-04-13T02:24:52.429Z,98890.67
2023-04-13T02:27:21.253Z,98890.55
2023-04-13T02:29:52.594Z,98892.70
2023-04-13T02:32:21.250Z,98890.91
2023-04-13T02:34:50.486Z,98889.39
2023-04-13T02:37:19.059Z,98892.79
2023-04-13T02:39:47.559Z,98888.17
2023-04-13T02:42:16.476Z,98890.37
2023-04-13T02:44:45.553Z,98892.66
2023-04-13T02:47:13.914Z,98891.30
2023-04-13T02:49:43.044Z,98892.39
2023-04-13T02:52:12.445Z,98893.66
2023-04-13T02:54:41.219Z,98893.81
2023-04-13T02:57:13.451Z,98888.08
2023-04-13T02:59:42.131Z,98889.77
2023-04-13T03:02:10.484Z,98883.58
2023-04-13T03:04:38.890Z,98887.39
2023-04-13T03:07:10.377Z,98888.50
2023-04-13T03:09:42.947Z,98890.20
2023-04-13T03:12:11.419Z,98894.96
2023-04-13T03:14:39.728Z,98895.63
2023-04-13T03:17:08.288Z,98894.19
2023-04-13T03:19:36.878Z,98894.30
2023-04-13T03:22:05.241Z,98897.15
2023-04-13T03:24:35.161Z,98898.67
2023-04-13T03:27:03.727Z,98900.54
2023-04-13T03:29:32.193Z,98900.31
2023-04-13T03:32:00.530Z,98904.08
2023-04-13T03:34:28.871Z,98901.77
2023-04-13T03:36:57.485Z,98904.44
2023-04-13T03:39:26.019Z,98909.25
2023-04-13T03:41:54.909Z,98909.80
2023-04-13T03:44:23.396Z,98916.98
2023-04-13T03:46:51.927Z,98920.68
2023-04-13T03:49:20.307Z,98918.74
2023-04-13T03:51:48.738Z,98921.73
2023-04-13T03:54:17.033Z,98920.04
2023-04-13T03:56:45.660Z,98923.06
2023-04-13T03:59:14.193Z,98915.36
2023-04-13T04:01:42.612Z,98916.13
2023-04-13T04:04:11.344Z,98919.98
2023-04-13T04:06:39.944Z,98922.02
2023-04-13T04:09:09.504Z,98922.55
2023-04-13T04:11:37.884Z,98922.06
2023-04-13T04:14:06.237Z,98924.23
2023-04-13T04:16:34.616Z,98922.58
2023-04-13T04:19:02.970Z,98921.92
2023-04-13T04:21:34.441Z,98925.80
2023-04-13T04:24:06.245Z,98930.16
2023-04-13T04:26:38.168Z,98930.43
2023-04-13T04:29:09.838Z,98932.98
2023-04-13T04:31:43.714Z,98938.10
2023-04-13T04:34:13.263Z,98949.91
2023-04-13T04:36:45.562Z,98949.58
2023-04-13T04:39:14.805Z,98954.90
2023-04-13T04:41:45.957Z,98954.63
2023-04-13T04:44:16.836Z,98954.90
2023-04-13T04:46:45.240Z,98959.78
2023-04-13T04:49:13.977Z,98960.62
2023-04-13T04:51:42.338Z,98965.79
2023-04-13T04:54:11.023Z,98965.66
2023-04-13T04:56:39.362Z,98970.34
2023-04-13T04:59:08.373Z,98967.30
2023-04-13T05:01:36.844Z,98969.09
2023-04-13T05:04:06.263Z,98972.98
2023-04-13T05:06:34.761Z,98977.13
2023-04-13T05:09:06.815Z,98981.77
2023-04-13T05:11:35.241Z,98985.78
2023-04-13T05:14:03.767Z,98985.95
2023-04-13T05:16:34.418Z,98984.58
2023-04-13T05:19:05.418Z,98987.45
2023-04-13T05:21:33.840Z,98988.61
2023-04-13T05:24:02.244Z,98989.30
2023-04-13T05:26:33.189Z,98989.58
2023-04-13T05:29:03.069Z,98992.65
2023-04-13T05:31:31.859Z,98990.09
2023-04-13T05:34:00.253Z,98997.09
2023-04-13T05:36:32.304Z,98997.45
2023-04-13T05:39:02.624Z,98999.73
2023-04-13T05:41:30.987Z,98999.63
2023-04-13T05:44:00.250Z,98998.91
2023-04-13T05:46:29.478Z,98997.48
2023-04-13T05:48:59.998Z,98998.83
2023-04-13T05:51:32.972Z,98998.23
2023-04-13T05:54:02.801Z,98996.43
2023-04-13T05:56:31.334Z,98994.63
2023-04-13T05:59:01.238Z,98997.66
2023-04-13T06:01:31.549Z,99003.80
2023-04-13T06:04:01.026Z,99004.33
2023-04-13T06:06:30.341Z,99008.17
2023-04-13T06:08:59.119Z,99003.20
2023-04-13T06:11:27.884Z,99001.52
2023-04-13T06:13:58.064Z,99004.75
2023-04-13T06:16:33.664Z,99012.22
2023-04-13T06:19:08.101Z,99010.97
2023-04-13T06:21:40.481Z,99012.45
2023-04-13T06:24:14.084Z,99020.75
2023-04-13T06:26:42.807Z,99026.64
2023-04-13T06:29:11.270Z,99023.65
2023-04-13T06:31:39.600Z,99025.97
2023-04-13T06:34:08.330Z,99029.42
2023-04-13T06:36:38.026Z,99033.04
2023-04-13T06:39:07.150Z,99031.48
2023-04-13T06:41:36.319Z,99032.88
2023-04-13T06:44:05.008Z,99032.17
2023-04-13T06:46:33.590Z,99034.43
2023-04-13T06:49:02.132Z,99035.05
2023-04-13T06:51:31.418Z,99036.86
2023-04-13T06:54:00.496Z,99039.79
2023-04-13T06:56:28.758Z,99047.59
2023-04-13T06:59:02.564Z,99047.44
2023-04-13T07:01:31.925Z,99048.38
2023-04-13T07:04:00.615Z,99052.96
2023-04-13T07:06:29.131Z,99051.39
2023-04-13T07:08:58.135Z,99052.34
2023-04-13T07:11:27.240Z,99051.64
2023-04-13T07:13:56.056Z,99053.20
2023-04-13T07:16:24.454Z,99051.60
2023-04-13T07:18:53.070Z,99053.45
2023-04-13T07:21:21.744Z,99058.93
2023-04-13T07:23:50.665Z,99059.44
2023-04-13T07:26:19.038Z,99059.17
2023-04-13T07:28:48.794Z,99061.15
2023-04-13T07:31:17.276Z,99057.48
2023-04-13T07:33:45.928Z,99055.91
2023-04-13T07:36:14.278Z,99062.14
2023-04-13T07:38:43.633Z,99070.61
2023-04-13T07:41:12.718Z,99073.55
2023-04-13T07:43:41.222Z,99074.30
2023-04-13T07:46:11.882Z,99076.86
2023-04-13T07:48:43.876Z,99078.01
2023-04-13T07:51:18.006Z,99081.05
2023-04-13T07:53:46.727Z,99081.63
2023-04-13T07:56:15.456Z,99085.13
2023-04-13T07:58:43.860Z,99086.36
2023-04-13T08:01:12.216Z,99087.10
2023-04-13T08:03:41.106Z,99091.05
2023-04-13T08:06:10.556Z,99090.29
2023-04-13T08:08:38.985Z,99094.20
2023-04-13T08:11:08.726Z,99095.79
2023-04-13T08:13:37.141Z,99095.17
2023-04-13T08:16:06.482Z,99097.65
2023-04-13T08:18:34.872Z,99098.36
2023-04-13T08:21:10.988Z,99103.10
2023-04-13T08:23:42.887Z,99103.44
2023-04-13T08:26:21.757Z,99110.60
2023-04-13T08:28:52.938Z,99106.38
2023-04-13T08:31:21.888Z,99104.27
2023-04-13T08:33:50.246Z,99102.27
2023-04-13T08:36:18.651Z,99103.93
2023-04-13T08:38:47.555Z,99102.84
2023-04-13T08:41:17.655Z,99104.77
2023-04-13T08:43:47.091Z,99108.05
2023-04-13T08:46:22.470Z,99106.63
2023-04-13T08:48:54.509Z,99110.26
2023-04-13T08:51:24.186Z,99109.36
2023-04-13T08:53:56.209Z,99109.25
2023-04-13T08:56:34.435Z,99110.23
2023-04-13T08:59:16.154Z,99110.43
2023-04-13T09:01:47.302Z,99112.20
2023-04-13T09:04:21.266Z,99118.02
2023-04-13T09:06:51.588Z,99125.02
2023-04-13T09:09:20.762Z,99129.16
2023-04-13T09:11:51.514Z,99132.10
2023-04-13T09:14:20.730Z,99137.01
2023-04-13T09:16:50.756Z,99138.23
2023-04-13T09:19:30.455Z,99134.55
2023-04-13T09:21:59.215Z,99130.19
2023-04-13T09:24:39.019Z,99128.63
2023-04-13T09:27:21.642Z,99129.09
2023-04-13T09:29:54.955Z,99124.58
2023-04-13T09:32:27.001Z,99129.98
2023-04-13T09:35:05.024Z,99132.52
2023-04-13T09:37:35.468Z,99133.89
2023-04-13T09:40:18.970Z,99134.70
2023-04-13T09:43:06.930Z,99131.92
2023-04-13T09:45:41.919Z,99131.05
2023-04-13T09:48:22.642Z,99130.96
2023-04-13T09:51:06.618Z,99133.01
2023-04-13T09:53:44.744Z,99134.61
2023-04-13T09:56:14.107Z,99134.13
2023-04-13T09:58:47.511Z,99136.98
2023-04-13T10:01:15.951Z,99142.40
2023-04-13T10:03:45.069Z,99145.97
2023-04-13T10:06:14.451Z,99153.09
2023-04-13T10:08:43.139Z,99151.60
2023-04-13T10:11:14.720Z,99152.56
2023-04-13T10:13:57.467Z,99151.12
2023-04-13T10:17:07.667Z,99151.77
2023-04-13T10:19:43.294Z,99159.35
2023-04-13T10:22:13.159Z,99162.21
2023-04-13T10:24:42.322Z,99163.96
2023-04-13T10:27:18.819Z,99161.38
2023-04-13T10:29:48.015Z,99161.55
2023-04-13T10:49:46.384Z,99176.44
2023-04-13T10:52:16.397Z,99182.38
2023-04-13T10:54:45.466Z,99184.11
2023-04-13T10:57:16.777Z,99192.39
2023-04-13T10:59:59.571Z,99193.50
2023-04-13T11:02:33.318Z,99200.40
2023-04-13T11:05:02.488Z,99203.38
2023-04-13T11:07:31.582Z,99207.42
2023-04-13T11:12:32.464Z,99210.26
2023-04-13T11:15:01.348Z,99217.20
2023-04-13T11:17:29.826Z,99216.80
2023-04-13T11:19:59.324Z,99224.90
2023-04-13T11:22:35.880Z,99224.60
2023-04-13T11:25:11.252Z,99229.88
2023-04-13T11:27:40.916Z,99229.27
2023-04-13T11:30:11.080Z,99230.96
2023-04-13T11:32:45.462Z,99224.92
2023-04-13T11:35:15.053Z,99227.01
2023-04-13T11:37:49.522Z,99227.38
2023-04-13T11:40:27.418Z,99229.95
2023-04-13T11:42:59.971Z,99233.57
2023-04-13T11:45:30.426Z,99231.95
2023-04-13T11:47:59.978Z,99234.13
2023-04-13T11:50:29.443Z,99227.23
2023-04-13T11:52:58.783Z,99228.99
2023-04-13T11:55:27.401Z,99227.84
2023-04-13T11:57:55.911Z,99223.67
2023-04-13T12:00:27.400Z,99226.13
2023-04-13T12:03:02.346Z,99223.02
2023-04-13T12:05:34.256Z,99222.73
2023-04-13T12:08:04.277Z,99222.15
2023-04-13T12:10:42.558Z,99217.66
2023-04-13T12:13:35.316Z,99212.80
2023-04-13T12:16:11.261Z,99211.02
2023-04-13T12:18:47.451Z,99212.01
2023-04-13T12:21:20.588Z,99213.46
2023-04-13T12:25:17.861Z,99215.68
2023-04-13T12:27:50.747Z,99224.21
2023-04-13T12:30:22.489Z,99220.20
2023-04-13T12:32:56.410Z,99230.79
2023-04-13T12:35:25.003Z,99227.24
2023-04-13T12:37:53.351Z,99230.13
2023-04-13T12:40:22.030Z,99228.78
2023-04-13T12:42:50.418Z,99229.14
2023-04-13T12:45:19.342Z,99228.52
2023-04-13T12:47:47.844Z,99232.42
2023-04-13T12:50:16.264Z,99231.00
2023-04-13T12:52:45.342Z,99233.84
2023-04-13T12:55:14.268Z,99239.52
2023-04-13T12:58:12.606Z,99243.77
2023-04-13T13:00:41.807Z,99242.83
2023-04-13T13:03:14.994Z,99238.85
2023-04-13T13:06:31.957Z,99237.54
2023-04-13T13:09:01.705Z,99238.27
2023-04-13T13:11:54.617Z,99237.99
2023-04-13T13:14:26.153Z,99240.31
2023-04-13T13:16:56.227Z,99240.13
2023-04-13T13:19:29.347Z,99236.27
2023-04-13T13:22:01.127Z,99236.07
2023-04-13T13:24:30.130Z,99230.31
2023-04-13T13:29:33.583Z,99232.33
2023-04-13T13:32:02.095Z,99229.04
2023-04-13T13:34:30.961Z,99235.13
2023-04-13T13:37:10.231Z,99232.95
2023-04-13T13:39:38.771Z,99236.79
2023-04-13T13:45:02.386Z,99239.89
2023-04-13T13:47:33.515Z,99239.33
2023-04-13T13:50:02.250Z,99239.75
2023-04-13T13:52:35.555Z,99241.20
2023-04-13T13:58:24.678Z,99236.95
2023-04-13T14:00:56.267Z,99237.79
2023-04-13T14:03:25.192Z,99241.08
2023-04-13T14:05:53.878Z,99240.55
2023-04-13T14:08:23.135Z,99244.80
2023-04-13T14:11:01.102Z,99248.45
2023-04-13T14:13:34.696Z,99261.31
2023-04-13T14:16:03.313Z,99257.52
2023-04-13T14:18:32.831Z,99256.65
2023-04-13T14:21:24.105Z,99259.41
2023-04-13T14:24:13.429Z,99262.28
2023-04-13T14:26:43.117Z,99264.41
2023-04-13T14:29:11.663Z,99258.05
2023-04-13T14:31:41.455Z,99256.02
2023-04-13T14:34:11.989Z,99253.92
2023-04-13T14:36:40.460Z,99256.45
2023-04-13T14:39:13.200Z,99256.62
2023-04-13T14:41:41.842Z,99258.72
2023-04-13T14:44:10.201Z,99255.94
2023-04-13T14:46:38.861Z,99255.29
2023-04-13T14:49:07.919Z,99252.01
2023-04-13T14:51:37.204Z,99251.45
2023-04-13T14:56:51.444Z,99255.52
2023-04-13T14:59:20.358Z,99259.23
2023-04-13T15:01:50.993Z,99257.73
2023-04-13T15:04:19.977Z,99259.14
2023-04-13T15:06:49.541Z,99256.98
2023-04-13T15:09:19.231Z,99258.37
2023-04-13T15:11:47.675Z,99256.42
2023-04-13T15:14:16.380Z,99256.64
2023-04-13T15:16:44.900Z,99259.11
2023-04-13T15:19:13.324Z,99260.52
2023-04-13T15:21:49.575Z,99260.54
2023-04-13T15:30:37.003Z,99260.61
2023-04-13T15:33:06.031Z,99263.13
2023-04-13T15:35:36.001Z,99262.52
2023-04-13T15:40:48.910Z,99270.84
2023-04-13T15:43:21.278Z,99271.17
2023-04-13T15:45:53.512Z,99271.61
2023-04-13T15:48:22.127Z,99276.60
2023-04-13T15:51:04.347Z,99276.02
2023-04-13T15:53:32.939Z,99278.94
2023-04-13T15:56:21.393Z,99276.67
2023-04-13T15:58:58.684Z,99276.42
2023-04-13T16:02:21.422Z,99276.36
2023-04-13T16:04:51.348Z,99279.04
2023-04-13T16:10:34.720Z,99280.80
2023-04-13T16:16:04.271Z,99280.99
2023-04-13T16:18:36.772Z,99281.15
2023-04-13T16:21:11.168Z,99286.04
2023-04-13T16:23:44.458Z,99282.58
2023-04-13T16:26:13.218Z,99286.21
2023-04-13T16:28:42.781Z,99285.08
2023-04-13T16:31:13.958Z,99286.69
2023-04-13T16:33:42.742Z,99285.03
2023-04-13T16:36:11.720Z,99291.30
2023-04-13T16:38:41.405Z,99290.88
2023-04-13T16:41:18.882Z,99292.47
2023-04-13T16:43:47.820Z,99293.85
2023-04-13T16:46:18.246Z,99295.85
2023-04-13T16:48:46.623Z,99299.45
2023-04-13T16:51:16.863Z,99304.64
2023-04-13T16:53:51.033Z,99309.75
2023-04-13T16:56:24.298Z,99315.95
2023-04-13T16:59:06.768Z,99317.84
2023-04-13T17:01:37.159Z,99324.72
2023-04-13T17:04:11.106Z,99322.89
2023-04-13T17:06:44.056Z,99328.75
2023-04-13T17:09:14.054Z,99329.59
2023-04-13T17:11:43.527Z,99332.98
2023-04-13T17:14:16.715Z,99341.65
2023-04-13T17:16:45.501Z,99345.38
2023-04-13T17:19:15.655Z,99345.42
2023-04-13T17:21:47.181Z,99352.51
2023-04-13T17:24:15.870Z,99356.70
2023-04-13T17:26:44.554Z,99361.02
2023-04-13T17:29:13.282Z,99366.45
2023-04-13T17:31:42.214Z,99364.71
2023-04-13T17:34:10.782Z,99367.89
2023-04-13T17:36:39.410Z,99374.17
2023-04-13T17:39:08.444Z,99375.49
2023-04-13T17:41:36.992Z,99369.31
2023-04-13T17:44:05.662Z,99375.23
2023-04-13T17:46:34.092Z,99374.40
2023-04-13T17:49:02.888Z,99376.02
2023-04-13T17:52:02.535Z,99376.33
2023-04-13T17:54:31.056Z,99377.77
2023-04-13T17:57:01.798Z,99381.23
2023-04-13T17:59:35.902Z,99383.93
2023-04-13T18:02:09.306Z,99383.86
2023-04-13T18:04:42.579Z,99387.84
2023-04-13T18:07:11.199Z,99389.05
2023-04-13T18:09:39.827Z,99391.86
2023-04-13T18:12:08.338Z,99399.73
2023-04-13T18:14:36.839Z,99399.92
2023-04-13T18:17:05.203Z,99405.17
2023-04-13T18:29:15.242Z,99415.30
2023-04-13T18:31:43.674Z,99418.23
2023-04-13T18:34:15.321Z,99418.20
2023-04-13T18:36:44.735Z,99417.72
2023-04-13T18:39:13.789Z,99422.25
2023-04-13T18:41:42.639Z,99424.20
2023-04-13T18:44:11.067Z,99427.60
2023-04-13T18:46:40.671Z,99429.63
2023-04-13T18:49:09.112Z,99426.77
2023-04-13T18:51:37.524Z,99424.45
2023-04-13T18:54:06.013Z,99425.61
2023-04-13T18:56:34.850Z,99423.16
2023-04-13T18:59:03.407Z,99426.24
2023-04-13T19:01:32.067Z,99427.02
2023-04-13T19:04:00.922Z,99428.98
2023-04-13T19:06:29.754Z,99427.34
2023-04-13T19:08:58.126Z,99433.30
2023-04-13T19:11:27.752Z,99433.23
2023-04-13T19:13:56.938Z,99435.52
2023-04-13T19:16:26.532Z,99432.04
2023-04-13T19:18:54.965Z,99430.27
2023-04-13T19:21:24.301Z,99429.42
2023-04-13T19:23:52.998Z,99428.85
2023-04-13T19:26:21.396Z,99432.31
2023-04-13T19:28:49.751Z,99435.10
2023-04-13T19:31:18.167Z,99438.18
2023-04-13T19:33:48.836Z,99441.48
2023-04-13T19:36:17.452Z,99441.45
2023-04-13T19:38:45.842Z,99442.28
2023-04-13T19:41:14.449Z,99442.98
2023-04-13T19:43:42.841Z,99443.73
2023-04-13T19:46:11.737Z,99441.66
2023-04-13T19:48:41.911Z,99446.05
2023-04-13T19:51:10.425Z,99446.93
2023-04-13T19:53:38.782Z,99450.84
2023-04-13T19:56:07.222Z,99449.17
2023-04-13T19:58:36.023Z,99455.98
2023-04-13T20:01:07.729Z,99457.16
2023-04-13T20:03:36.630Z,99457.90
2023-04-13T20:06:05.181Z,99455.30
2023-04-13T20:08:33.651Z,99454.26
2023-04-13T20:11:02.021Z,99455.82
2023-04-13T20:13:30.503Z,99458.29
2023-04-13T20:15:58.874Z,99456.73
2023-04-13T20:18:27.599Z,99452.27
2023-04-13T20:20:55.912Z,99447.92
2023-04-13T20:23:24.282Z,99445.39
2023-04-13T20:25:52.921Z,99448.30
2023-04-13T20:28:21.540Z,99449.40
2023-04-13T20:30:50.083Z,99451.15
2023-04-13T20:33:18.448Z,99450.84
2023-04-13T20:35:46.966Z,99452.89
2023-04-13T20:38:15.424Z,99449.50
2023-04-13T20:40:45.919Z,99447.20
2023-04-13T20:43:20.643Z,99449.56
2023-04-13T20:45:50.382Z,99450.73
2023-04-13T20:50:50.166Z,99448.21
2023-04-13T20:53:19.649Z,99446.66
2023-04-13T20:55:49.078Z,99446.82
2023-04-13T20:58:17.576Z,99440.20
2023-04-13T21:00:46.201Z,99438.19
2023-04-13T21:03:14.842Z,99437.10
2023-04-13T21:05:43.347Z,99435.04
2023-04-13T21:08:11.814Z,99431.98
2023-04-13T21:10:40.225Z,99431.40
2023-04-13T21:13:10.661Z,99425.61
2023-04-13T21:15:39.082Z,99421.16
2023-04-13T21:18:07.500Z,99414.16
2023-04-13T21:20:36.517Z,99409.30
2023-04-13T21:23:05.199Z,99411.61
2023-04-13T21:25:33.528Z,99407.20
2023-04-13T21:28:03.044Z,99401.88
2023-04-13T21:30:31.424Z,99399.15
2023-04-13T21:32:59.865Z,99397.44
2023-04-13T21:35:29.225Z,99394.45
2023-04-13T21:37:57.583Z,99388.52
2023-04-13T21:40:26.030Z,99389.23
2023-04-13T21:42:54.431Z,99380.14
2023-04-13T21:45:22.814Z,99378.85
2023-04-13T21:47:52.950Z,99378.96
2023-04-13T21:50:21.774Z,99369.92
2023-04-13T21:52:50.328Z,99370.14
2023-04-13T21:55:18.993Z,99368.98
2023-04-13T21:57:47.998Z,99367.99
2023-04-13T22:00:19.705Z,99366.52
2023-04-13T22:02:49.314Z,99361.67
2023-04-13T22:05:18.144Z,99356.30
2023-04-13T22:07:46.599Z,99357.13
2023-04-13T22:10:15.041Z,99355.83
2023-04-13T22:12:43.489Z,99357.77
2023-04-13T22:15:11.863Z,99362.77
2023-04-13T22:17:40.235Z,99361.10
2023-04-13T22:20:09.127Z,99362.71
2023-04-13T22:22:37.462Z,99364.56
2023-04-13T22:25:06.261Z,99366.55
2023-04-13T22:27:37.495Z,99366.90
2023-04-13T22:30:07.393Z,99365.55
2023-04-13T22:32:35.927Z,99363.10
2023-04-13T22:35:04.824Z,99361.54
2023-04-13T22:37:35.351Z,99354.13
2023-04-13T22:40:04.462Z,99350.14
2023-04-13T22:42:32.843Z,99355.70
2023-04-13T22:45:01.289Z,99355.97
2023-04-13T22:47:29.705Z,99353.29
2023-04-13T22:50:01.423Z,99354.19
2023-04-13T22:52:29.775Z,99356.47
2023-04-13T22:54:58.140Z,99353.80
2023-04-13T22:57:26.788Z,99352.85
2023-04-13T22:59:55.180Z,99352.61
2023-04-13T23:02:23.718Z,99354.55
2023-04-13T23:04:52.254Z,99357.42
2023-04-13T23:07:20.776Z,99353.54
2023-04-13T23:09:55.084Z,99353.37
2023-04-13T23:12:23.935Z,99345.83
2023-04-13T23:14:52.422Z,99343.24
2023-04-13T23:17:20.826Z,99345.22
2023-04-13T23:19:49.157Z,99342.63
2023-04-13T23:22:17.456Z,99335.45
2023-04-13T23:24:45.782Z,99341.33
2023-04-13T23:27:14.308Z,99338.75
2023-04-13T23:29:45.594Z,99336.69
2023-04-13T23:32:13.999Z,99338.70
2023-04-13T23:34:42.367Z,99336.62
2023-04-13T23:37:11.277Z,99338.46
2023-04-13T23:39:39.607Z,99339.05
2023-04-13T23:42:08.622Z,99338.70
2023-04-13T23:44:37.086Z,99339.54
2023-04-13T23:47:06.146Z,99338.95
2023-04-13T23:49:34.570Z,99343.20
2023-04-13T23:52:02.898Z,99338.08
2023-04-13T23:54:31.259Z,99338.27
2023-04-13T23:56:59.581Z,99334.17
2023-04-13T23:59:27.971Z,99331.61
